Time;durP1;ratioP1;P1;durP2;ratioP2;P2;SDS_P1;SDS_P2;PMS_P1;PMS_P2;Temp;Humidity;BMP_temperature;BMP_pressure;BME280_temperature;BME280_humidity;BME280_pressure;Samples;Min_cycle;Max_cycle;Signal;HPM_P1;HPM_P2
2022/03/03 00:01:52;;;;;;;15.38;7.55;;;;;;;1.14;55.72;99549.00;5064468;28;20032;-63
2022/03/03 00:04:17;;;;;;;15.77;6.85;;;;;;;1.15;56.74;99545.63;5065070;28;20024;-64
2022/03/03 00:06:43;;;;;;;12.75;6.97;;;;;;;1.14;55.78;99534.56;5064369;28;20899;-63
2022/03/03 00:09:09;;;;;;;18.08;7.32;;;;;;;1.13;54.28;99537.94;5053547;28;20025;-62
2022/03/03 00:11:34;;;;;;;17.15;6.65;;;;;;;1.12;54.73;99531.13;5064401;28;20318;-62
2022/03/03 00:14:00;;;;;;;21.88;6.78;;;;;;;1.05;54.57;99531.03;5061358;28;20033;-61
2022/03/03 00:16:26;;;;;;;21.58;7.05;;;;;;;0.98;54.84;99514.78;5064630;28;20142;-63
2022/03/03 00:18:52;;;;;;;14.55;6.53;;;;;;;1.00;54.96;99520.75;5063156;28;20028;-63
2022/03/03 00:21:18;;;;;;;15.90;6.70;;;;;;;1.05;55.24;99521.66;5064121;28;20037;-64
2022/03/03 00:23:44;;;;;;;20.55;7.65;;;;;;;1.05;55.09;99516.56;5064504;28;20071;-63
2022/03/03 00:26:10;;;;;;;17.65;6.63;;;;;;;1.02;54.79;99517.38;5064223;28;20237;-63
2022/03/03 00:28:35;;;;;;;18.50;6.80;;;;;;;1.01;54.36;99508.03;5069392;28;20029;-63
2022/03/03 00:31:01;;;;;;;18.17;7.00;;;;;;;1.00;53.57;99510.56;5064136;28;20021;-62
2022/03/03 00:33:26;;;;;;;15.32;6.60;;;;;;;0.98;52.88;99502.91;5063104;28;20025;-62
2022/03/03 00:35:52;;;;;;;15.60;6.40;;;;;;;0.95;53.25;99489.22;5064283;28;20021;-63
2022/03/03 00:38:18;;;;;;;15.73;6.47;;;;;;;0.94;53.37;99497.72;5064268;28;20029;-62
2022/03/03 00:40:43;;;;;;;18.75;7.50;;;;;;;0.95;52.95;99492.63;5064176;28;20325;-61
2022/03/03 00:43:09;;;;;;;14.70;7.25;;;;;;;0.99;53.90;99499.50;5063681;28;20032;-64
2022/03/03 00:45:35;;;;;;;16.42;6.70;;;;;;;0.87;51.17;99491.69;5063979;28;20033;-64
2022/03/03 00:48:03;;;;;;;18.02;6.97;;;;;;;0.78;50.68;99484.72;5063878;28;20043;-64
2022/03/03 00:50:29;;;;;;;18.70;7.40;;;;;;;0.85;52.77;99476.34;5062088;28;20033;-64
2022/03/03 00:52:55;;;;;;;18.00;6.95;;;;;;;0.92;52.38;99484.09;5062597;28;20226;-63
2022/03/03 00:55:21;;;;;;;22.88;6.70;;;;;;;0.83;50.94;99478.03;5062285;28;20076;-64
2022/03/03 00:57:46;;;;;;;25.67;7.30;;;;;;;0.89;51.54;99479.81;5063537;28;20025;-63
2022/03/03 01:00:12;;;;;;;13.10;6.80;;;;;;;0.93;53.72;99483.28;5063573;28;20076;-64
2022/03/03 01:02:38;;;;;;;15.23;6.97;;;;;;;0.95;50.92;99482.44;5063761;28;20086;-65
2022/03/03 01:05:05;;;;;;;17.42;6.88;;;;;;;0.96;51.51;99476.50;5063761;28;20049;-64
2022/03/03 01:07:31;;;;;;;19.92;7.22;;;;;;;0.93;50.93;99473.91;5060758;28;20024;-63
2022/03/03 01:09:57;;;;;;;17.77;6.65;;;;;;;0.93;50.76;99473.91;5059154;28;20092;-63
2022/03/03 01:12:23;;;;;;;19.42;7.95;;;;;;;0.95;50.68;99472.22;5063371;28;20025;-63
2022/03/03 01:14:49;;;;;;;25.42;8.07;;;;;;;0.96;51.02;99473.09;5063558;28;20377;-63
2022/03/03 01:17:14;;;;;;;20.52;7.90;;;;;;;0.99;51.31;99458.69;5063399;28;20070;-64
2022/03/03 01:19:41;;;;;;;21.55;7.80;;;;;;;0.99;52.42;99458.69;5062841;28;20052;-65
2022/03/03 01:22:06;;;;;;;16.45;7.40;;;;;;;0.97;52.85;99454.41;5061920;28;20048;-65
2022/03/03 01:24:32;;;;;;;20.13;7.32;;;;;;;0.98;51.54;99451.91;5063536;28;20024;-64
2022/03/03 01:26:58;;;;;;;13.57;6.45;;;;;;;1.01;52.58;99451.06;5062192;28;20025;-64
2022/03/03 01:29:24;;;;;;;14.80;6.25;;;;;;;0.97;53.81;99446.75;5063396;28;20040;-65
2022/03/03 01:31:49;;;;;;;17.23;7.28;;;;;;;0.93;55.46;99439.94;5062437;28;20071;-65
2022/03/03 01:34:17;;;;;;;15.68;7.00;;;;;;;0.95;52.56;99433.16;5063009;28;20032;-64
2022/03/03 01:36:43;;;;;;;16.17;7.63;;;;;;;0.94;52.46;99429.75;5063100;28;20025;-63
2022/03/03 01:39:09;;;;;;;14.73;8.00;;;;;;;0.93;52.24;99428.03;5061950;28;20333;-64
2022/03/03 01:41:35;;;;;;;15.48;7.75;;;;;;;0.92;51.22;99433.13;5061787;28;20369;-63
2022/03/03 01:44:00;;;;;;;18.25;8.50;;;;;;;0.90;51.26;99429.66;5062824;28;20043;-64
2022/03/03 01:46:26;;;;;;;15.68;8.40;;;;;;;0.83;50.50;99414.31;5061921;28;20025;-63
2022/03/03 01:48:51;;;;;;;20.23;8.60;;;;;;;0.82;52.41;99417.69;5063007;28;20036;-64
2022/03/03 01:51:17;;;;;;;19.10;8.57;;;;;;;0.84;54.80;99423.66;5061864;28;20021;-62
2022/03/03 01:53:43;;;;;;;20.30;8.65;;;;;;;0.80;55.29;99414.25;5062940;28;20124;-63
2022/03/03 01:56:09;;;;;;;17.50;8.27;;;;;;;0.75;54.88;99418.44;5062645;28;20029;-61
2022/03/03 01:58:36;;;;;;;16.60;9.05;;;;;;;0.73;52.36;99434.53;5062692;28;20326;-62
2022/03/03 02:01:02;;;;;;;20.05;9.52;;;;;;;0.68;51.46;99416.63;5062663;28;20032;-63
2022/03/03 02:03:28;;;;;;;18.70;10.60;;;;;;;0.68;51.55;99403.91;5062653;28;20029;-62
2022/03/03 02:05:53;;;;;;;19.88;9.50;;;;;;;0.69;51.00;99395.41;5061247;28;20045;-63
2022/03/03 02:08:22;;;;;;;20.92;9.50;;;;;;;0.69;52.71;99397.97;5061347;28;20116;-63
2022/03/03 02:10:48;;;;;;;21.42;8.82;;;;;;;0.65;54.26;99403.84;5062342;28;20051;-63
2022/03/03 02:13:13;;;;;;;20.33;8.90;;;;;;;0.62;55.45;99393.63;5062545;28;20051;-63
2022/03/03 02:15:39;;;;;;;16.92;8.25;;;;;;;0.59;55.84;99404.63;5062345;28;20021;-63
2022/03/03 02:18:05;;;;;;;19.73;8.93;;;;;;;0.60;53.86;99397.81;5062596;28;20039;-62
2022/03/03 02:20:31;;;;;;;25.83;9.93;;;;;;;0.58;55.43;99395.25;5073501;28;20301;-63
2022/03/03 02:22:58;;;;;;;18.10;8.10;;;;;;;0.47;56.13;99384.06;5064991;28;20025;-61
2022/03/03 02:25:25;;;;;;;25.85;10.27;;;;;;;0.43;56.50;99401.00;5062371;28;20032;-62
2022/03/03 02:27:50;;;;;;;19.95;8.45;;;;;;;0.38;55.43;99392.44;5061142;28;20032;-62
2022/03/03 02:30:18;;;;;;;26.67;8.95;;;;;;;-0.06;55.66;99318.78;5062260;28;20024;-61
2022/03/03 02:32:45;;;;;;;16.08;8.35;;;;;;;0.39;55.85;99389.06;5062232;28;20028;-62
2022/03/03 02:35:11;;;;;;;26.83;9.68;;;;;;;0.29;55.06;99377.03;5062466;28;20040;-62
2022/03/03 02:37:39;;;;;;;18.02;8.82;;;;;;;0.34;55.03;99401.72;5061140;28;20314;-62
2022/03/03 02:40:09;;;;;;;17.02;8.32;;;;;;;-0.10;53.12;99315.34;5062399;28;20037;-63
2022/03/03 02:42:34;;;;;;;19.48;8.75;;;;;;;0.30;52.77;99386.34;5061856;28;20256;-62
2022/03/03 02:45:01;;;;;;;19.60;8.13;;;;;;;0.30;54.50;99382.13;5065787;28;20028;-62
2022/03/03 02:47:28;;;;;;;16.98;8.80;;;;;;;0.28;54.39;99375.31;5066381;28;20100;-60
2022/03/03 02:49:54;;;;;;;23.65;8.25;;;;;;;0.31;54.23;99373.66;5066041;28;20032;-60
2022/03/03 02:52:20;;;;;;;19.95;8.77;;;;;;;0.29;53.20;99377.03;5065872;28;20092;-60
2022/03/03 02:54:45;;;;;;;17.00;8.65;;;;;;;0.27;55.93;99369.38;5065857;28;20025;-61
2022/03/03 02:59:55;;;;;;;20.02;9.10;;;;;;;0.23;55.96;99367.59;5065555;28;20032;-60
2022/03/03 03:02:21;;;;;;;20.23;8.45;;;;;;;0.13;55.06;99360.66;5065463;28;20013;-61
2022/03/03 03:04:47;;;;;;;21.13;9.50;;;;;;;0.14;55.79;99353.03;5065286;28;20033;-61
2022/03/03 03:07:12;;;;;;;20.40;9.20;;;;;;;0.19;55.29;99354.81;5065402;28;20053;-61
2022/03/03 03:09:38;;;;;;;14.70;7.80;;;;;;;0.17;55.09;99342.91;5065115;28;20029;-62
2022/03/03 03:12:03;;;;;;;20.15;9.13;;;;;;;0.19;56.44;99331.91;5065595;28;20090;-62
2022/03/03 03:14:29;;;;;;;19.80;7.53;;;;;;;0.20;55.26;99334.47;5065899;28;20024;-62
2022/03/03 03:16:55;;;;;;;18.48;8.38;;;;;;;0.16;54.64;99340.34;5065758;28;20035;-62
2022/03/03 03:19:21;;;;;;;21.50;9.02;;;;;;;0.15;55.49;99333.53;5064135;28;20028;-62
2022/03/03 03:21:46;;;;;;;19.67;8.98;;;;;;;0.11;55.79;99336.84;5065644;28;20396;-61
2022/03/03 03:24:12;;;;;;;18.65;7.82;;;;;;;0.05;55.33;99331.69;5065501;28;20025;-63
2022/03/03 03:26:38;;;;;;;15.10;8.35;;;;;;;0.14;56.53;99344.53;5065396;28;20024;-62
2022/03/03 03:29:03;;;;;;;15.48;8.38;;;;;;;0.13;55.58;99328.41;5065358;28;20025;-62
2022/03/03 03:31:29;;;;;;;14.00;7.97;;;;;;;0.12;54.33;99336.88;5065357;28;20033;-62
2022/03/03 03:33:54;;;;;;;15.30;7.78;;;;;;;0.06;53.50;99325.72;5065339;28;20037;-62
2022/03/03 03:36:20;;;;;;;18.58;7.72;;;;;;;0.19;54.36;99331.91;5065594;28;20223;-62
2022/03/03 03:38:45;;;;;;;16.30;7.93;;;;;;;0.14;52.98;99330.13;5064030;28;20321;-62
2022/03/03 03:41:12;;;;;;;16.42;7.40;;;;;;;0.15;55.50;99325.88;5064045;28;21170;-63
2022/03/03 03:43:38;;;;;;;13.43;7.00;;;;;;;0.12;53.83;99316.50;5064862;28;20024;-63
2022/03/03 03:46:03;;;;;;;24.30;8.13;;;;;;;0.15;53.29;99316.53;5065203;28;20110;-62
2022/03/03 03:48:30;;;;;;;17.15;7.50;;;;;;;0.13;55.60;99310.59;5064987;28;20304;-62
2022/03/03 03:50:55;;;;;;;19.90;8.90;;;;;;;0.10;55.57;99310.56;5064922;28;20036;-61
2022/03/03 03:53:21;;;;;;;16.50;7.68;;;;;;;0.11;54.51;99309.69;5064842;28;20214;-62
2022/03/03 03:55:47;;;;;;;17.65;7.30;;;;;;;0.11;54.96;99308.84;5064066;28;20128;-61
2022/03/03 03:58:13;;;;;;;20.13;7.90;;;;;;;0.10;56.55;99312.22;5063541;28;20056;-62
2022/03/03 04:00:39;;;;;;;21.55;8.13;;;;;;;0.07;56.55;99313.06;5064897;28;20039;-62
2022/03/03 04:03:05;;;;;;;21.10;9.02;;;;;;;0.03;55.85;99308.75;5064614;28;20031;-63
2022/03/03 04:05:30;;;;;;;27.92;8.57;;;;;;;0.05;54.57;99311.31;5064865;28;20053;-63
2022/03/03 04:07:56;;;;;;;20.52;8.13;;;;;;;-0.04;55.79;99301.84;5058243;28;20075;-63
2022/03/03 04:10:22;;;;;;;18.40;9.02;;;;;;;-0.08;56.66;99285.66;5057162;28;20294;-61
2022/03/03 04:12:47;;;;;;;24.23;8.90;;;;;;;0.00;56.98;99298.53;5063576;28;20028;-62
2022/03/03 04:15:13;;;;;;;25.38;8.63;;;;;;;-0.09;54.67;99304.31;5064494;28;20013;-62
2022/03/03 04:17:39;;;;;;;20.25;7.85;;;;;;;-0.12;55.86;99303.41;5063258;28;20032;-63
2022/03/03 04:20:06;;;;;;;22.05;9.27;;;;;;;-0.52;56.09;99237.50;5064170;28;20017;-63
2022/03/03 04:22:32;;;;;;;17.08;7.50;;;;;;;-0.15;55.54;99303.38;5062962;28;20340;-63
2022/03/03 04:24:58;;;;;;;14.30;7.43;;;;;;;-0.08;56.47;99300.09;5063367;28;20269;-61
2022/03/03 04:27:23;;;;;;;18.00;7.85;;;;;;;-0.17;53.32;99298.28;5064034;28;20016;-62
2022/03/03 04:29:49;;;;;;;16.48;7.95;;;;;;;-0.13;54.50;99278.78;5063579;28;20077;-62
2022/03/03 04:32:14;;;;;;;23.20;8.00;;;;;;;-0.11;53.92;99300.06;5063923;28;20032;-61
2022/03/03 04:34:40;;;;;;;20.60;8.27;;;;;;;-0.15;55.52;99291.50;5064202;28;20051;-62
2022/03/03 04:37:06;;;;;;;19.23;8.27;;;;;;;-0.17;55.13;99288.09;5064273;28;20040;-61
2022/03/03 04:39:31;;;;;;;17.55;8.27;;;;;;;-0.12;55.22;99277.97;5064101;28;20337;-61
2022/03/03 04:41:58;;;;;;;21.95;8.68;;;;;;;-0.20;53.57;99288.00;5063819;28;20021;-61
2022/03/03 04:44:24;;;;;;;20.10;9.25;;;;;;;-0.05;54.03;99283.16;5063501;28;20381;-61
2022/03/03 04:46:49;;;;;;;20.33;8.90;;;;;;;-0.08;54.28;99285.66;5063851;28;20041;-61
2022/03/03 04:49:15;;;;;;;23.40;8.50;;;;;;;-0.01;54.69;99284.94;5062660;28;20025;-62
2022/03/03 04:51:41;;;;;;;22.50;8.85;;;;;;;-0.07;53.73;99289.06;5063690;28;20037;-61
2022/03/03 04:54:09;;;;;;;19.48;9.02;;;;;;;-0.32;53.51;99217.47;5063491;28;20024;-61
2022/03/03 04:56:36;;;;;;;19.92;8.43;;;;;;;0.07;55.38;99274.88;5063654;28;20401;-62
2022/03/03 04:59:01;;;;;;;17.73;8.38;;;;;;;0.10;54.69;99284.22;5062058;28;20332;-62
2022/03/03 05:01:27;;;;;;;24.42;8.57;;;;;;;-0.18;55.56;99248.19;5062215;28;20025;-63
2022/03/03 05:03:52;;;;;;;17.33;8.27;;;;;;;0.11;53.08;99285.94;5063416;28;20237;-64
2022/03/03 05:06:18;;;;;;;24.77;9.27;;;;;;;0.14;53.58;99291.94;5063012;28;20060;-61
2022/03/03 05:08:44;;;;;;;29.05;9.32;;;;;;;0.07;53.27;99292.69;5056401;28;20369;-63
2022/03/03 05:11:10;;;;;;;18.83;8.38;;;;;;;0.12;53.20;99285.09;5063147;28;20321;-62
2022/03/03 05:13:36;;;;;;;25.75;8.90;;;;;;;0.15;51.79;99288.53;5063448;28;20036;-62
2022/03/03 05:16:03;;;;;;;15.23;8.55;;;;;;;0.21;51.97;99294.56;5062048;28;20032;-58
2022/03/03 05:18:29;;;;;;;18.40;8.57;;;;;;;0.27;52.26;99298.06;5062661;28;20138;-61
2022/03/03 05:20:55;;;;;;;17.25;8.40;;;;;;;0.25;52.19;99286.13;5063092;28;20226;-61
2022/03/03 05:23:22;;;;;;;20.13;8.18;;;;;;;0.34;51.92;99299.84;5061937;28;20345;-64
2022/03/03 05:25:47;;;;;;;20.02;8.50;;;;;;;0.41;51.94;99305.88;5062966;28;20020;-63
2022/03/03 05:28:13;;;;;;;24.08;9.32;;;;;;;0.38;51.22;99297.34;5062820;28;20025;-62
2022/03/03 05:30:39;;;;;;;21.98;8.88;;;;;;;0.36;51.62;99299.88;5062252;28;20025;-63
2022/03/03 05:33:04;;;;;;;19.98;9.15;;;;;;;0.38;51.01;99295.63;5062522;28;20029;-63
2022/03/03 05:35:30;;;;;;;22.13;9.63;;;;;;;0.49;50.45;99303.44;5062628;28;20036;-63
2022/03/03 05:37:56;;;;;;;20.25;8.55;;;;;;;0.48;50.30;99302.56;5062555;28;20036;-62
2022/03/03 05:40:21;;;;;;;23.25;9.43;;;;;;;0.38;49.99;99297.34;5062458;28;20203;-63
2022/03/03 05:42:47;;;;;;;26.20;9.73;;;;;;;0.41;50.96;99294.84;5062080;28;20314;-64
2022/03/03 05:45:13;;;;;;;27.08;9.85;;;;;;;0.43;50.57;99288.06;5061655;28;20082;-64
2022/03/03 05:47:39;;;;;;;25.08;9.65;;;;;;;0.31;49.73;99283.66;5062843;28;20048;-63
2022/03/03 05:50:05;;;;;;;28.30;8.27;;;;;;;0.35;50.25;99282.88;5062792;28;20035;-64
2022/03/03 05:52:31;;;;;;;35.03;10.00;;;;;;;0.39;50.40;99287.19;5062775;28;20089;-63
2022/03/03 05:54:57;;;;;;;18.65;9.48;;;;;;;0.46;49.84;99273.69;5062067;28;20028;-64
2022/03/03 05:57:36;;;;;;;21.30;9.15;;;;;;;0.07;51.34;99216.31;5062545;28;20178;-64
2022/03/03 06:00:07;;;;;;;20.85;9.48;;;;;;;0.61;49.86;99274.69;5062500;28;20036;-63
2022/03/03 06:02:32;;;;;;;20.25;9.15;;;;;;;0.69;49.46;99275.66;5061793;28;20112;-63
2022/03/03 06:04:58;;;;;;;22.60;10.27;;;;;;;0.72;49.02;99280.78;5068829;28;20118;-63
2022/03/03 06:07:27;;;;;;;19.83;9.05;;;;;;;0.34;49.40;99213.25;5060566;28;20039;-62
2022/03/03 06:09:56;;;;;;;25.02;9.43;;;;;;;0.57;49.73;99252.56;5061030;28;20379;-63
2022/03/03 06:12:45;;;;;;;21.10;9.85;;;;;;;0.73;49.52;99267.22;5062526;28;20040;-63
2022/03/03 06:15:13;;;;;;;15.18;7.88;;;;;;;0.83;49.85;99269.00;5049029;28;20033;-63
2022/03/03 06:17:40;;;;;;;26.38;9.07;;;;;;;0.50;48.84;99203.25;5061589;28;20040;-63
2022/03/03 06:20:06;;;;;;;20.95;9.07;;;;;;;1.10;49.16;99264.19;5065708;28;20031;-63
2022/03/03 06:22:31;;;;;;;26.65;8.50;;;;;;;1.13;49.38;99257.44;5066825;28;20039;-63
2022/03/03 06:24:57;;;;;;;20.13;9.35;;;;;;;1.22;48.39;99255.81;5066546;28;20029;-63
2022/03/03 06:27:23;;;;;;;21.42;9.60;;;;;;;1.26;48.22;99250.75;5066556;28;20025;-63
2022/03/03 06:29:48;;;;;;;27.50;9.38;;;;;;;1.16;48.08;99239.59;5065395;28;20033;-62
2022/03/03 06:32:14;;;;;;;22.52;9.80;;;;;;;1.45;48.73;99251.75;5066391;28;20031;-62
2022/03/03 06:34:39;;;;;;;24.02;8.55;;;;;;;1.38;47.94;99252.53;5066358;28;20033;-63
2022/03/03 06:37:06;;;;;;;24.88;10.50;;;;;;;1.49;48.33;99255.19;5066631;28;20025;-63
2022/03/03 06:39:32;;;;;;;28.88;9.52;;;;;;;1.62;48.02;99246.78;5065322;28;20032;-62
2022/03/03 06:41:57;;;;;;;24.15;9.48;;;;;;;1.72;47.13;99246.03;5065033;28;20025;-62
2022/03/03 06:44:23;;;;;;;29.13;9.23;;;;;;;1.80;47.10;99245.22;5065940;28;20033;-62
2022/03/03 06:46:49;;;;;;;21.95;9.88;;;;;;;1.89;47.24;99238.47;5066357;28;20029;-62
2022/03/03 06:49:15;;;;;;;22.83;8.93;;;;;;;2.34;46.56;99235.31;5066092;28;20318;-63
2022/03/03 06:51:47;;;;;;;31.30;10.02;;;;;;;3.05;45.26;99238.06;5065844;28;20112;-63
2022/03/03 06:54:21;;;;;;;26.23;9.43;;;;;;;4.23;43.05;99224.34;5053412;28;20029;-63
2022/03/03 06:56:48;;;;;;;23.40;9.48;;;;;;;5.00;42.23;99223.09;5066250;28;20041;-63
2022/03/03 06:59:23;;;;;;;27.55;9.27;;;;;;;5.37;39.92;99222.84;5066019;28;20141;-63
2022/03/03 07:01:49;;;;;;;24.02;9.20;;;;;;;5.73;39.08;99212.28;5072267;28;20031;-63
2022/03/03 07:04:17;;;;;;;29.80;9.68;;;;;;;5.93;37.52;99204.38;5064759;28;20082;-63
2022/03/03 07:06:43;;;;;;;24.88;9.63;;;;;;;6.74;37.30;99208.59;5064257;28;20045;-64
2022/03/03 07:09:09;;;;;;;25.90;9.55;;;;;;;7.32;37.47;99206.00;5065315;28;20393;-63
2022/03/03 07:11:38;;;;;;;23.92;9.65;;;;;;;7.51;36.39;99200.53;5065279;28;20029;-64
2022/03/03 07:14:05;;;;;;;29.15;9.65;;;;;;;7.64;35.63;99202.06;5065077;28;20048;-64
2022/03/03 07:16:39;;;;;;;27.23;9.20;;;;;;;7.59;35.74;99142.84;5065454;28;20033;-63
2022/03/03 07:19:14;;;;;;;24.90;9.70;;;;;;;7.69;35.23;99146.09;5064942;28;20021;-63
2022/03/03 07:22:19;;;;;;;26.10;10.27;;;;;;;7.55;34.14;99203.06;5065394;28;20356;-63
2022/03/03 07:24:48;;;;;;;22.27;8.68;;;;;;;7.82;35.99;99138.16;5058352;28;20045;-64
2022/03/03 07:27:22;;;;;;;25.23;10.13;;;;;;;8.08;35.33;99120.44;5064940;28;20025;-62
2022/03/03 07:29:56;;;;;;;23.48;7.63;;;;;;;8.27;34.74;99135.53;5061634;28;20029;-62
2022/03/03 07:32:36;;;;;;;19.05;8.23;;;;;;;8.83;34.39;99186.00;5064709;28;20052;-62
2022/03/03 07:35:14;;;;;;;16.98;7.43;;;;;;;9.03;33.15;99183.78;5064358;28;20024;-63
2022/03/03 07:37:53;;;;;;;20.50;7.50;;;;;;;8.85;32.14;99187.66;5065552;28;20025;-63
2022/03/03 07:40:19;;;;;;;17.63;7.15;;;;;;;8.86;33.31;99184.19;5063998;28;20036;-64
2022/03/03 07:42:45;;;;;;;18.13;6.70;;;;;;;8.84;31.97;99177.38;5064621;28;20033;-64
2022/03/03 07:45:11;;;;;;;20.45;7.25;;;;;;;8.64;32.04;99187.22;5065071;28;20090;-63
2022/03/03 07:47:39;;;;;;;17.70;7.30;;;;;;;8.87;31.62;99182.47;5063150;28;20033;-63
2022/03/03 07:50:05;;;;;;;15.32;7.32;;;;;;;8.81;32.57;99189.44;5057744;28;20099;-62
2022/03/03 07:52:32;;;;;;;29.13;6.90;;;;;;;9.29;32.91;99177.16;5063757;28;20055;-63
2022/03/03 07:54:57;;;;;;;27.95;7.90;;;;;;;9.33;32.53;99187.41;5062914;28;20039;-62
2022/03/03 07:57:32;;;;;;;19.92;8.25;;;;;;;9.29;31.99;99179.72;5064824;28;20029;-64
2022/03/03 08:00:10;;;;;;;24.00;7.35;;;;;;;9.18;32.70;99174.84;5064719;28;20075;-63
2022/03/03 08:02:40;;;;;;;25.45;8.48;;;;;;;9.22;33.46;99122.22;5065038;28;20041;-63
2022/03/03 08:05:06;;;;;;;37.25;8.05;;;;;;;9.79;32.84;99163.81;5064648;28;20073;-64
2022/03/03 08:07:41;;;;;;;17.40;7.75;;;;;;;9.54;31.50;99124.84;5062046;28;20036;-63
2022/03/03 08:10:08;;;;;;;21.02;8.40;;;;;;;9.05;33.41;99170.84;5055856;28;20126;-63
2022/03/03 08:12:35;;;;;;;19.92;8.20;;;;;;;9.02;33.10;99171.78;5064368;28;20358;-63
2022/03/03 08:15:01;;;;;;;17.20;7.63;;;;;;;9.27;33.24;99166.03;5064667;28;20643;-63
2022/03/03 08:17:26;;;;;;;23.75;7.80;;;;;;;9.65;31.88;99161.63;5063410;28;20032;-64
2022/03/03 08:19:54;;;;;;;20.25;6.65;;;;;;;9.61;32.73;99106.53;5064453;28;20119;-63
2022/03/03 08:22:24;;;;;;;21.30;6.93;;;;;;;9.69;30.69;99114.13;5064832;28;20210;-63
2022/03/03 08:24:53;;;;;;;15.15;6.50;;;;;;;10.10;31.31;99158.66;5053575;28;20349;-62
2022/03/03 08:27:21;;;;;;;18.83;6.78;;;;;;;10.49;32.06;99158.44;5057656;28;20029;-63
2022/03/03 08:29:46;;;;;;;14.75;6.78;;;;;;;10.67;31.69;99145.81;5061850;28;20044;-63
2022/03/03 08:32:16;;;;;;;17.15;7.43;;;;;;;10.85;30.60;99127.13;5064092;28;20021;-64
2022/03/03 08:34:47;;;;;;;17.33;7.47;;;;;;;10.91;29.02;99161.50;5063624;28;20025;-63
2022/03/03 08:37:33;;;;;;;20.92;7.00;;;;;;;11.50;30.73;99145.75;5063941;28;20080;-63
2022/03/03 08:40:01;;;;;;;17.45;6.50;;;;;;;11.50;28.53;99150.06;5062829;28;20935;-63
2022/03/03 08:42:34;;;;;;;16.17;6.05;;;;;;;11.28;28.77;99096.38;5061127;28;20044;-64
2022/03/03 08:45:04;;;;;;;18.92;6.45;;;;;;;12.12;29.81;99159.19;5063057;28;20234;-63
2022/03/03 08:47:30;;;;;;;13.75;6.97;;;;;;;11.95;28.57;99151.16;5063411;28;20234;-63
2022/03/03 08:50:03;;;;;;;12.15;6.63;;;;;;;11.84;28.81;99136.81;5063501;28;20067;-63
2022/03/03 08:52:29;;;;;;;15.82;5.85;;;;;;;12.26;28.42;99145.72;5063398;28;20044;-63
2022/03/03 08:54:55;;;;;;;20.13;6.72;;;;;;;12.46;28.88;99147.56;5063262;28;20036;-63
2022/03/03 08:57:20;;;;;;;17.23;6.60;;;;;;;13.04;28.89;99139.22;5063395;28;20056;-63
2022/03/03 08:59:46;;;;;;;16.17;6.13;;;;;;;13.25;28.45;99137.53;5061665;28;20025;-63
2022/03/03 09:02:16;;;;;;;14.88;5.80;;;;;;;12.73;28.02;99104.06;5063075;28;20330;-64
2022/03/03 09:04:44;;;;;;;28.95;14.90;;;;;;;12.78;27.19;99096.09;5062952;28;20037;-64
2022/03/03 09:07:09;;;;;;;13.07;5.93;;;;;;;13.62;26.55;99135.13;5063278;28;20107;-63
2022/03/03 09:09:35;;;;;;;14.75;5.97;;;;;;;13.77;26.34;99144.88;5055557;28;20028;-63
2022/03/03 09:12:03;;;;;;;12.55;6.20;;;;;;;13.44;28.35;99145.41;5063362;28;20230;-63
2022/03/03 09:14:30;;;;;;;18.40;5.82;;;;;;;13.92;26.46;99142.53;5063496;28;20017;-63
2022/03/03 09:16:55;;;;;;;14.02;6.68;;;;;;;13.50;25.75;99139.13;5063303;28;20093;-63
2022/03/03 09:19:21;;;;;;;15.00;6.20;;;;;;;13.94;27.87;99138.09;5063344;28;20028;-64
2022/03/03 09:21:47;;;;;;;17.42;9.80;;;;;;;14.18;26.79;99132.69;5063179;28;20029;-64
2022/03/03 09:24:13;;;;;;;13.43;5.43;;;;;;;13.89;26.13;99132.25;5063010;28;20036;-64
2022/03/03 09:26:38;;;;;;;14.07;6.03;;;;;;;13.76;25.48;99116.31;5062557;28;20025;-64
2022/03/03 09:29:04;;;;;;;13.27;5.85;;;;;;;13.81;26.62;99130.00;5062959;28;20025;-64
2022/03/03 09:31:29;;;;;;;13.52;6.70;;;;;;;13.80;25.45;99125.69;5062848;28;20221;-63
2022/03/03 09:33:55;;;;;;;18.15;9.85;;;;;;;12.51;26.32;99118.81;5062877;28;20043;-64
2022/03/03 09:36:21;;;;;;;15.45;6.95;;;;;;;13.12;27.06;99118.13;5062865;28;20021;-63
2022/03/03 09:38:46;;;;;;;26.77;7.32;;;;;;;13.23;27.99;99117.69;5062733;28;20024;-63
2022/03/03 09:41:12;;;;;;;17.83;7.45;;;;;;;12.69;26.40;99112.88;5062854;28;20031;-63
2022/03/03 09:43:42;;;;;;;22.02;7.30;;;;;;;11.96;27.83;99121.72;5062942;28;20028;-62
2022/03/03 09:46:09;;;;;;;17.38;8.40;;;;;;;11.49;27.36;99114.69;5061646;28;20043;-62
2022/03/03 09:48:35;;;;;;;13.57;6.07;;;;;;;10.95;28.52;99117.31;5062781;28;20278;-62
2022/03/03 09:51:00;;;;;;;12.88;5.93;;;;;;;10.98;28.85;99108.59;5062212;28;20040;-63
2022/03/03 09:53:26;;;;;;;15.07;5.30;;;;;;;10.75;28.61;99107.59;5059062;28;20031;-62
2022/03/03 09:55:51;;;;;;;15.45;6.38;;;;;;;10.32;29.75;99075.25;5060793;28;20028;-62
2022/03/03 09:58:17;;;;;;;11.73;5.90;;;;;;;10.26;29.40;99089.22;5062327;28;20093;-62
2022/03/03 10:00:43;;;;;;;11.45;5.15;;;;;;;9.92;29.89;99097.94;5062194;28;20054;-63
2022/03/03 10:03:13;;;;;;;12.63;4.70;;;;;;;8.99;29.67;99037.53;5062286;28;20389;-62
2022/03/03 10:05:47;;;;;;;12.15;5.40;;;;;;;9.33;30.28;99099.53;5058107;28;20142;-62
2022/03/03 10:08:19;;;;;;;9.43;4.70;;;;;;;8.73;29.60;99033.03;5058997;28;20031;-63
2022/03/03 10:10:48;;;;;;;11.35;4.97;;;;;;;9.10;31.02;99113.00;5062010;28;20027;-62
2022/03/03 10:13:17;;;;;;;12.60;4.85;;;;;;;9.10;31.68;99094.94;5062131;28;20046;-63
2022/03/03 10:15:51;;;;;;;13.20;5.07;;;;;;;8.57;31.43;99048.88;5062518;28;20313;-61
2022/03/03 10:18:18;;;;;;;12.43;4.20;;;;;;;8.91;31.48;99091.13;5061552;28;20074;-64
2022/03/03 10:20:59;;;;;;;7.18;3.65;;;;;;;8.93;31.56;99090.19;5062222;28;20051;-62
2022/03/03 10:23:36;;;;;;;12.00;4.07;;;;;;;8.87;31.29;99094.66;5062218;28;20191;-62
2022/03/03 10:26:05;;;;;;;12.90;4.60;;;;;;;8.72;30.25;99099.31;5061292;28;20202;-61
2022/03/03 10:28:33;;;;;;;8.90;4.13;;;;;;;8.66;31.08;99081.38;5061940;28;20227;-63
2022/03/03 10:31:02;;;;;;;10.10;4.10;;;;;;;8.75;30.83;99085.47;5060697;28;20026;-63
2022/03/03 10:33:36;;;;;;;6.03;3.60;;;;;;;8.49;30.43;99016.41;5059446;28;20025;-63
2022/03/03 10:36:16;;;;;;;10.50;4.47;;;;;;;8.63;29.56;99077.13;5061801;28;20036;-62
2022/03/03 10:38:50;;;;;;;10.27;4.68;;;;;;;8.56;30.66;99062.66;5061828;28;20068;-61
2022/03/03 10:41:46;;;;;;;9.20;3.97;;;;;;;8.49;29.31;99081.75;5059783;28;20028;-62
2022/03/03 10:44:12;;;;;;;10.40;4.22;;;;;;;8.48;30.74;99076.63;5055366;28;20033;-62
2022/03/03 10:46:59;;;;;;;8.65;3.75;;;;;;;8.41;30.45;99092.22;5062534;28;20404;-60
2022/03/03 10:49:25;;;;;;;5.90;3.88;;;;;;;8.07;28.59;99081.81;5061631;28;20322;-63
2022/03/03 10:51:51;;;;;;;7.40;3.10;;;;;;;7.83;29.22;99078.84;5061969;28;20023;-62
2022/03/03 10:54:17;;;;;;;6.63;3.33;;;;;;;8.06;28.54;99078.34;5062080;28;20032;-62
2022/03/03 10:56:48;;;;;;;8.25;3.47;;;;;;;8.08;31.36;99075.75;5060917;28;20235;-63
2022/03/03 10:59:23;;;;;;;8.90;3.60;;;;;;;7.71;32.49;99005.19;5061705;28;20098;-61
2022/03/03 11:01:49;;;;;;;7.60;3.25;;;;;;;8.03;31.77;99064.69;5061545;28;20322;-63
2022/03/03 11:04:21;;;;;;;8.10;4.07;;;;;;;7.88;30.99;99079.59;5061797;28;20036;-61
2022/03/03 11:06:52;;;;;;;8.18;4.20;;;;;;;8.01;31.44;99057.00;5065164;28;20251;-62
2022/03/03 11:09:18;;;;;;;8.30;3.92;;;;;;;8.10;29.64;99067.09;5065288;28;20052;-63
2022/03/03 11:11:46;;;;;;;10.20;4.05;;;;;;;8.25;30.27;99059.91;5065314;28;20268;-63
2022/03/03 11:14:12;;;;;;;8.95;3.65;;;;;;;7.99;28.62;99058.75;5046090;28;20329;-62
2022/03/03 11:16:39;;;;;;;6.97;3.90;;;;;;;7.81;28.39;99065.16;5065052;28;20123;-62
2022/03/03 11:19:05;;;;;;;9.57;4.05;;;;;;;7.93;30.76;99056.28;5064429;28;20083;-63
2022/03/03 11:21:30;;;;;;;9.85;3.90;;;;;;;8.00;31.28;99055.28;5064871;28;20029;-62
2022/03/03 11:23:58;;;;;;;6.75;3.80;;;;;;;7.87;31.32;98994.56;5064903;28;20314;-63
2022/03/03 11:26:39;;;;;;;9.15;4.60;;;;;;;8.11;28.91;99050.75;5065389;28;20321;-61
2022/03/03 11:29:20;;;;;;;7.10;4.35;;;;;;;8.07;30.28;99051.69;5049957;28;20036;-63
2022/03/03 11:32:01;;;;;;;10.32;4.15;;;;;;;7.84;30.39;98999.75;5048246;28;20028;-62
2022/03/03 11:34:30;;;;;;;10.00;4.13;;;;;;;8.09;30.34;99043.91;5064508;28;20264;-63
2022/03/03 11:36:59;;;;;;;6.85;3.63;;;;;;;8.07;31.56;99046.53;5064857;28;20036;-61